createdAt,value
2018-02-24T00:00:31.128Z,0.00
2018-02-24T00:01:31.159Z,0.00
2018-02-24T00:02:31.075Z,0.00
2018-02-24T00:03:31.044Z,0.00
2018-02-24T00:04:31.115Z,0.00
2018-02-24T00:05:31.295Z,0.00
2018-02-24T00:06:30.955Z,0.00
2018-02-24T00:07:31.278Z,0.00
2018-02-24T00:08:30.904Z,0.00
2018-02-24T00:09:31.567Z,0.00
2018-02-24T00:10:30.847Z,0.00
2018-02-24T00:11:31.112Z,0.00
2018-02-24T00:12:30.776Z,0.00
2018-02-24T00:13:30.820Z,0.00
2018-02-24T00:14:30.856Z,0.00
2018-02-24T00:15:30.698Z,0.00
2018-02-24T00:16:30.665Z,0.00
2018-02-24T00:17:31.035Z,0.00
2018-02-24T00:18:30.606Z,0.00
2018-02-24T00:19:30.729Z,0.00
2018-02-24T00:20:30.549Z,0.00
2018-02-24T00:21:30.519Z,0.00
2018-02-24T00:22:30.574Z,0.00
2018-02-24T00:23:30.767Z,0.00
2018-02-24T00:24:30.487Z,0.00
2018-02-24T00:25:30.638Z,0.00
2018-02-24T00:26:30.371Z,0.00
2018-02-24T00:27:30.445Z,0.00
2018-02-24T00:28:30.322Z,0.00
2018-02-24T00:29:30.531Z,0.00
2018-02-24T00:30:31.183Z,0.00
2018-02-24T00:31:30.230Z,0.00
2018-02-24T00:32:30.197Z,0.00
2018-02-24T00:33:30.173Z,0.00
2018-02-24T00:34:30.202Z,0.00
2018-02-24T00:35:30.365Z,0.00
2018-02-24T00:36:30.138Z,0.00
2018-02-24T00:37:30.064Z,0.00
2018-02-24T00:38:30.023Z,0.00
2018-02-24T00:39:29.985Z,0.00
2018-02-24T00:40:29.979Z,0.00
2018-02-24T00:41:30.308Z,0.00
2018-02-24T00:42:29.960Z,0.00
2018-02-24T00:43:29.934Z,0.00
2018-02-24T00:44:29.845Z,0.00
2018-02-24T00:45:29.867Z,0.00
2018-02-24T00:46:29.790Z,0.00
2018-02-24T00:47:30.062Z,0.00
2018-02-24T00:48:29.744Z,0.00
2018-02-24T00:49:29.702Z,0.00
2018-02-24T00:50:29.674Z,0.00
2018-02-24T00:51:30.896Z,0.00
2018-02-24T00:52:29.626Z,0.00
2018-02-24T00:53:29.887Z,0.00
2018-02-24T00:54:29.552Z,0.00
2018-02-24T00:55:29.519Z,0.00
2018-02-24T00:56:29.491Z,0.00
2018-02-24T00:57:29.513Z,0.00
2018-02-24T00:58:29.446Z,0.00
2018-02-24T00:59:29.663Z,0.00
2018-02-24T01:00:29.375Z,0.00
2018-02-24T01:01:29.348Z,0.00
2018-02-24T01:02:29.326Z,0.00
2018-02-24T01:03:29.847Z,0.00
2018-02-24T01:05:29.581Z,0.00
2018-02-24T01:07:29.747Z,0.00
2018-02-24T01:09:29.187Z,0.00
2018-02-24T01:10:29.102Z,0.00
2018-02-24T01:11:29.298Z,0.00
2018-02-24T01:12:29.026Z,0.00
2018-02-24T01:13:29.000Z,0.00
2018-02-24T01:14:28.963Z,0.00
2018-02-24T01:15:28.988Z,0.00
2018-02-24T01:17:29.339Z,0.00
2018-02-24T01:18:28.856Z,0.00
2018-02-24T01:19:28.846Z,0.00
2018-02-24T01:20:28.868Z,0.00
2018-02-24T01:21:28.960Z,0.00
2018-02-24T01:22:28.738Z,0.00
2018-02-24T01:23:29.065Z,0.00
2018-02-24T01:24:28.671Z,0.00
2018-02-24T01:25:28.641Z,0.00
2018-02-24T01:26:28.613Z,0.00
2018-02-24T01:27:28.595Z,0.00
2018-02-24T01:28:28.601Z,0.00
2018-02-24T01:29:28.824Z,0.00
2018-02-24T01:30:28.570Z,0.00
2018-02-24T01:31:28.503Z,0.00
2018-02-24T01:32:28.465Z,0.00
2018-02-24T01:33:28.457Z,0.00
2018-02-24T01:34:28.456Z,0.00
2018-02-24T01:35:28.666Z,0.00
2018-02-24T01:36:28.385Z,0.00
2018-02-24T01:37:28.303Z,0.00
2018-02-24T01:38:28.386Z,0.00
2018-02-24T01:40:29.469Z,0.00
2018-02-24T01:42:28.465Z,0.00
2018-02-24T01:43:28.128Z,0.00
2018-02-24T01:44:28.103Z,0.00
2018-02-24T01:45:28.083Z,0.00
2018-02-24T01:46:28.126Z,0.00
2018-02-24T01:47:28.244Z,0.00
2018-02-24T01:49:28.193Z,0.00
2018-02-24T01:50:27.926Z,0.00
2018-02-24T01:51:27.901Z,0.00
2018-02-24T01:52:29.132Z,0.00
2018-02-24T01:53:27.834Z,0.00
2018-02-24T01:54:27.805Z,0.00
2018-02-24T01:55:28.083Z,0.00
2018-02-24T01:56:27.752Z,0.00
2018-02-24T01:57:27.724Z,0.00
2018-02-24T01:58:27.731Z,0.00
2018-02-24T01:59:27.656Z,0.00
2018-02-24T02:00:27.628Z,0.00
2018-02-24T02:01:27.897Z,0.00
2018-02-24T02:02:27.558Z,0.00
2018-02-24T02:03:27.524Z,0.00
2018-02-24T02:04:27.495Z,0.00
2018-02-24T02:05:27.468Z,0.00
2018-02-24T02:06:27.432Z,0.00
2018-02-24T02:07:27.708Z,0.00
2018-02-24T02:08:27.371Z,0.00
2018-02-24T02:09:27.347Z,0.00
2018-02-24T02:10:27.315Z,0.00
2018-02-24T02:11:27.292Z,0.00
2018-02-24T02:12:27.260Z,0.00
2018-02-24T02:13:27.579Z,0.00
2018-02-24T02:14:27.213Z,0.00
2018-02-24T02:15:27.170Z,0.00
2018-02-24T02:16:27.142Z,0.00
2018-02-24T02:17:27.108Z,0.00
2018-02-24T02:18:27.084Z,0.00
2018-02-24T02:19:27.387Z,0.00
2018-02-24T02:20:27.027Z,0.00
2018-02-24T02:21:26.998Z,0.00
2018-02-24T02:22:26.970Z,0.00
2018-02-24T02:23:26.939Z,0.00
2018-02-24T02:24:26.903Z,0.00
2018-02-24T02:25:27.171Z,0.00
2018-02-24T02:26:26.847Z,0.00
2018-02-24T02:27:26.822Z,0.00
2018-02-24T02:28:26.787Z,0.00
2018-02-24T02:29:26.753Z,0.00
2018-02-24T02:30:26.736Z,0.00
2018-02-24T02:31:27.051Z,0.00
2018-02-24T02:32:26.680Z,0.00
2018-02-24T02:33:26.639Z,0.00
2018-02-24T02:34:26.614Z,0.00
2018-02-24T02:35:26.598Z,0.00
2018-02-24T02:36:26.555Z,0.00
2018-02-24T02:37:26.825Z,0.00
2018-02-24T02:38:26.492Z,0.00
2018-02-24T02:39:26.475Z,0.00
2018-02-24T02:40:26.435Z,0.00
2018-02-24T02:41:26.398Z,0.00
2018-02-24T02:42:26.376Z,0.00
2018-02-24T02:43:26.648Z,0.00
2018-02-24T02:44:26.310Z,0.00
2018-02-24T02:45:26.285Z,0.00
2018-02-24T02:46:26.255Z,0.00
2018-02-24T02:47:26.229Z,0.00
2018-02-24T02:48:26.197Z,0.00
2018-02-24T02:49:26.519Z,0.00
2018-02-24T02:50:26.143Z,0.00
2018-02-24T02:51:26.107Z,0.00
2018-02-24T02:52:26.080Z,0.00
2018-02-24T02:53:26.049Z,0.00
2018-02-24T02:54:26.014Z,0.00
2018-02-24T02:55:26.643Z,0.00
2018-02-24T02:56:25.961Z,0.00
2018-02-24T02:57:25.931Z,0.00
2018-02-24T02:58:25.906Z,0.00
2018-02-24T02:59:25.876Z,0.00
2018-02-24T03:00:25.851Z,0.00
2018-02-24T03:01:26.176Z,0.00
2018-02-24T03:02:25.782Z,0.00
2018-02-24T03:03:25.755Z,0.00
2018-02-24T03:04:25.730Z,0.00
2018-02-24T03:05:25.691Z,0.00
2018-02-24T03:06:25.660Z,0.00
2018-02-24T03:07:25.979Z,0.00
2018-02-24T03:08:25.597Z,0.00
2018-02-24T03:09:25.570Z,0.00
2018-02-24T03:10:25.543Z,0.00
2018-02-24T03:11:25.510Z,0.00
2018-02-24T03:12:25.476Z,0.00
2018-02-24T03:13:25.766Z,0.00
2018-02-24T03:14:25.427Z,0.00
2018-02-24T03:15:25.391Z,0.00
2018-02-24T03:16:25.364Z,0.00
2018-02-24T03:17:25.349Z,0.00
2018-02-24T03:18:25.300Z,0.00
2018-02-24T03:19:25.925Z,0.00
2018-02-24T03:20:25.239Z,0.00
2018-02-24T03:21:25.219Z,0.00
2018-02-24T03:22:25.191Z,0.00
2018-02-24T03:23:25.151Z,0.00
2018-02-24T03:24:25.124Z,0.00
2018-02-24T03:25:25.390Z,0.00
2018-02-24T03:26:25.064Z,0.00
2018-02-24T03:27:25.035Z,0.00
2018-02-24T03:28:25.005Z,0.00
2018-02-24T03:29:24.971Z,0.00
2018-02-24T03:30:24.949Z,0.00
2018-02-24T03:31:25.271Z,0.00
2018-02-24T03:32:24.886Z,0.00
2018-02-24T03:33:24.874Z,0.00
2018-02-24T03:34:24.836Z,0.00
2018-02-24T03:35:24.802Z,0.00
2018-02-24T03:36:24.773Z,0.00
2018-02-24T03:37:25.040Z,0.00
2018-02-24T03:38:24.710Z,0.00
2018-02-24T03:39:24.694Z,0.00
2018-02-24T03:40:24.653Z,0.00
2018-02-24T03:41:24.619Z,0.00
2018-02-24T03:42:24.607Z,0.00
2018-02-24T03:43:24.908Z,0.00
2018-02-24T03:44:24.536Z,0.00
2018-02-24T03:45:24.509Z,0.00
2018-02-24T03:46:24.475Z,0.00
2018-02-24T03:47:24.443Z,0.00
2018-02-24T03:48:24.433Z,0.00
2018-02-24T03:49:24.697Z,0.00
2018-02-24T03:50:24.361Z,0.00
2018-02-24T03:51:24.339Z,0.00
2018-02-24T03:52:24.300Z,0.00
2018-02-24T03:53:24.275Z,0.00
2018-02-24T03:54:24.250Z,0.00
2018-02-24T03:55:24.516Z,0.00
2018-02-24T03:56:24.190Z,0.00
2018-02-24T03:57:24.153Z,0.00
2018-02-24T03:58:24.132Z,0.00
2018-02-24T03:59:24.105Z,0.00
2018-02-24T04:00:24.070Z,0.00
2018-02-24T04:01:25.544Z,0.00
2018-02-24T04:02:24.010Z,0.00
2018-02-24T04:03:23.986Z,0.00
2018-02-24T04:04:23.957Z,0.00
2018-02-24T04:05:23.931Z,0.00
2018-02-24T04:06:23.897Z,0.00
2018-02-24T04:07:24.173Z,0.00
2018-02-24T04:08:23.854Z,0.00
2018-02-24T04:09:23.818Z,0.00
2018-02-24T04:10:23.791Z,0.00
2018-02-24T04:11:23.765Z,0.00
2018-02-24T04:12:23.733Z,0.00
2018-02-24T04:13:24.117Z,0.00
2018-02-24T04:14:23.776Z,0.00
2018-02-24T04:15:23.654Z,0.00
2018-02-24T04:16:23.632Z,0.00
2018-02-24T04:17:23.595Z,0.00
2018-02-24T04:18:23.558Z,0.00
2018-02-24T04:19:23.836Z,0.00
2018-02-24T04:20:23.506Z,0.00
2018-02-24T04:21:23.475Z,0.00
2018-02-24T04:22:23.453Z,0.00
2018-02-24T04:23:23.418Z,0.00
2018-02-24T04:24:23.398Z,0.00
2018-02-24T04:25:23.680Z,0.00
2018-02-24T04:26:23.338Z,0.00
2018-02-24T04:27:23.308Z,0.00
2018-02-24T04:28:23.283Z,0.00
2018-02-24T04:29:23.255Z,0.00
2018-02-24T04:30:23.225Z,0.00
2018-02-24T04:31:23.899Z,0.00
2018-02-24T04:32:23.166Z,0.00
2018-02-24T04:33:23.143Z,0.00
2018-02-24T04:34:23.110Z,0.00
2018-02-24T04:35:23.101Z,0.00
2018-02-24T04:36:23.071Z,0.00
2018-02-24T04:37:23.335Z,0.00
2018-02-24T04:38:23.003Z,0.00
2018-02-24T04:39:22.973Z,0.00
2018-02-24T04:40:22.948Z,0.00
2018-02-24T04:41:22.920Z,0.00
2018-02-24T04:42:22.893Z,0.00
2018-02-24T04:43:23.216Z,0.00
2018-02-24T04:44:22.849Z,0.00
2018-02-24T04:45:22.828Z,0.00
2018-02-24T04:46:22.783Z,0.00
2018-02-24T04:47:22.750Z,0.00
2018-02-24T04:48:22.732Z,0.00
2018-02-24T04:49:24.249Z,0.00
2018-02-24T04:50:22.676Z,0.00
2018-02-24T04:51:22.654Z,0.00
2018-02-24T04:52:22.616Z,0.00
2018-02-24T04:53:22.591Z,0.00
2018-02-24T04:54:22.562Z,0.00
2018-02-24T04:55:22.884Z,0.00
2018-02-24T04:56:22.501Z,0.00
2018-02-24T04:57:22.488Z,0.00
2018-02-24T04:58:22.463Z,0.00
2018-02-24T04:59:22.431Z,0.00
2018-02-24T05:00:22.400Z,0.00
2018-02-24T05:01:23.019Z,0.00
2018-02-24T05:02:22.363Z,0.00
2018-02-24T05:03:22.319Z,0.00
2018-02-24T05:04:22.293Z,0.00
2018-02-24T05:05:22.256Z,0.00
2018-02-24T05:06:22.236Z,0.00
2018-02-24T05:07:22.559Z,0.00
2018-02-24T05:08:22.176Z,0.00
2018-02-24T05:09:22.161Z,0.00
2018-02-24T05:11:22.088Z,0.00
2018-02-24T05:12:22.071Z,0.00
2018-02-24T05:13:22.499Z,0.00
2018-02-24T05:14:22.019Z,0.00
2018-02-24T05:15:21.994Z,0.00
2018-02-24T05:16:21.978Z,0.00
2018-02-24T05:17:21.928Z,0.00
2018-02-24T05:18:21.906Z,0.00
2018-02-24T05:19:22.191Z,0.00
2018-02-24T05:20:21.867Z,0.00
2018-02-24T05:21:21.820Z,0.00
2018-02-24T05:22:21.791Z,0.00
2018-02-24T05:23:21.768Z,0.00
2018-02-24T05:24:21.743Z,0.00
2018-02-24T05:25:22.069Z,0.00
2018-02-24T05:26:21.683Z,0.00
2018-02-24T05:27:21.655Z,0.00
2018-02-24T05:28:21.633Z,0.00
2018-02-24T05:29:21.606Z,0.00
2018-02-24T05:30:21.575Z,0.00
2018-02-24T05:31:21.895Z,0.00
2018-02-24T05:32:21.516Z,0.00
2018-02-24T05:33:21.509Z,0.00
2018-02-24T05:34:21.459Z,0.00
2018-02-24T05:35:21.434Z,0.00
2018-02-24T05:36:21.404Z,0.00
2018-02-24T05:37:21.698Z,0.00
2018-02-24T05:38:21.358Z,0.00
2018-02-24T05:39:21.331Z,0.00
2018-02-24T05:40:21.302Z,0.00
2018-02-24T05:41:21.276Z,0.00
2018-02-24T05:42:21.248Z,0.00
2018-02-24T05:43:21.563Z,0.00
2018-02-24T05:44:21.248Z,0.00
2018-02-24T05:45:21.202Z,0.00
2018-02-24T05:48:21.083Z,0.00
2018-02-24T05:49:21.126Z,0.00
2018-02-24T05:50:21.354Z,4.00
2018-02-24T05:51:20.999Z,0.00
2018-02-24T05:52:20.982Z,4.00
2018-02-24T05:53:20.952Z,0.00
2018-02-24T05:54:20.913Z,8.00
2018-02-24T05:55:21.040Z,4.00
2018-02-24T05:56:20.865Z,8.00
2018-02-24T05:57:21.218Z,8.00
2018-02-24T05:58:20.835Z,8.00
2018-02-24T05:59:20.783Z,12.00
2018-02-24T06:00:20.757Z,12.00
2018-02-24T06:01:20.834Z,12.00
2018-02-24T06:02:20.697Z,16.00
2018-02-24T06:03:20.670Z,20.00
2018-02-24T06:04:20.900Z,20.00
2018-02-24T06:05:20.614Z,20.00
2018-02-24T06:06:20.592Z,28.00
2018-02-24T06:07:20.923Z,28.00
2018-02-24T06:08:20.541Z,32.00
2018-02-24T06:09:20.512Z,40.00
2018-02-24T06:10:20.792Z,44.00
2018-02-24T06:11:20.455Z,52.00
2018-02-24T06:12:20.426Z,60.00
2018-02-24T06:13:20.446Z,68.00
2018-02-24T06:14:20.378Z,76.00
2018-02-24T06:15:20.344Z,80.00
2018-02-24T06:16:20.619Z,84.00
2018-02-24T06:17:20.291Z,96.00
2018-02-24T06:18:20.263Z,104.00
2018-02-24T06:19:20.285Z,112.00
2018-02-24T06:20:20.214Z,116.00
2018-02-24T06:21:20.248Z,120.00
2018-02-24T06:22:33.147Z,124.00
2018-02-24T06:23:20.143Z,140.00
2018-02-24T06:24:20.120Z,140.00
2018-02-24T06:25:53.342Z,152.00
2018-02-24T06:26:20.054Z,152.00
2018-02-24T06:27:20.031Z,148.00
2018-02-24T06:28:20.298Z,172.00
2018-02-24T06:31:20.140Z,220.00
2018-02-24T06:32:19.896Z,228.00
2018-02-24T06:33:19.876Z,228.00
2018-02-24T06:34:20.136Z,244.00
2018-02-24T06:35:19.813Z,220.00
2018-02-24T06:36:19.784Z,176.00
2018-02-24T06:37:19.812Z,244.00
2018-02-24T06:38:19.732Z,256.00
2018-02-24T06:39:19.699Z,304.00
2018-02-24T06:40:19.980Z,312.00
2018-02-24T06:41:19.664Z,344.00
2018-02-24T06:42:19.637Z,376.00
2018-02-24T06:43:19.947Z,400.00
2018-02-24T06:44:19.568Z,404.00
2018-02-24T06:45:19.540Z,448.00
2018-02-24T06:46:19.515Z,484.00
2018-02-24T06:47:19.736Z,504.00
2018-02-24T06:48:19.475Z,568.00
2018-02-24T06:49:19.483Z,580.00
2018-02-24T06:50:19.404Z,568.00
2018-02-24T06:51:19.376Z,572.00
2018-02-24T06:52:19.358Z,620.00
2018-02-24T06:53:19.325Z,676.00
2018-02-24T06:54:19.545Z,704.00
2018-02-24T06:55:19.324Z,732.00
2018-02-24T06:56:19.247Z,796.00
2018-02-24T06:57:19.225Z,828.00
2018-02-24T06:58:19.194Z,820.00
2018-02-24T06:59:19.168Z,880.00
2018-02-24T07:00:19.146Z,868.00
2018-02-24T07:01:19.470Z,912.00
2018-02-24T07:02:19.090Z,980.00
2018-02-24T07:03:19.057Z,1064.00
2018-02-24T07:04:19.033Z,1120.00
2018-02-24T07:05:19.009Z,1196.00
2018-02-24T07:06:18.986Z,1316.00
2018-02-24T07:07:19.007Z,1492.00
2018-02-24T07:08:19.191Z,1732.00
2018-02-24T07:09:18.903Z,1844.00
2018-02-24T07:10:18.876Z,1804.00
2018-02-24T07:11:18.852Z,1948.00
2018-02-24T07:12:18.818Z,2160.00
2018-02-24T07:13:18.949Z,2280.00
2018-02-24T07:14:18.873Z,2464.00
2018-02-24T07:15:19.048Z,2528.00
2018-02-24T07:16:18.720Z,2564.00
2018-02-24T07:17:18.701Z,2572.00
2018-02-24T07:18:18.667Z,2616.00
2018-02-24T07:19:18.694Z,2684.00
2018-02-24T07:20:18.619Z,2688.00
2018-02-24T07:21:18.689Z,2688.00
2018-02-24T07:22:18.928Z,2608.00
2018-02-24T07:23:18.554Z,2664.00
2018-02-24T07:24:18.514Z,2924.00
2018-02-24T07:25:18.534Z,2824.00
2018-02-24T07:26:18.480Z,2496.00
2018-02-24T07:27:18.510Z,2240.00
2018-02-24T07:28:18.410Z,2020.00
2018-02-24T07:29:18.683Z,2016.00
2018-02-24T07:30:18.359Z,2132.00
2018-02-24T07:31:18.335Z,2088.00
2018-02-24T07:32:18.310Z,2236.00
2018-02-24T07:33:18.287Z,2412.00
2018-02-24T07:34:18.251Z,2380.00
2018-02-24T07:35:18.528Z,2460.00
2018-02-24T07:36:18.205Z,2276.00
2018-02-24T07:37:18.536Z,2100.00
2018-02-24T07:38:18.154Z,2044.00
2018-02-24T07:39:18.123Z,1980.00
2018-02-24T07:40:18.098Z,2068.00
2018-02-24T07:41:18.374Z,2564.00
2018-02-24T07:42:18.047Z,3008.00
2018-02-24T07:43:18.074Z,3076.00
2018-02-24T07:44:18.498Z,3300.00
2018-02-24T07:45:17.970Z,3600.00
2018-02-24T07:46:18.687Z,4004.00
2018-02-24T07:47:18.169Z,3832.00
2018-02-24T07:48:17.892Z,3504.00
2018-02-24T07:49:18.018Z,3584.00
2018-02-24T07:50:17.842Z,3724.00
2018-02-24T07:51:17.815Z,3416.00
2018-02-24T07:52:17.793Z,3404.00
2018-02-24T07:53:18.020Z,3920.00
2018-02-24T07:54:17.740Z,4412.00
2018-02-24T07:55:17.767Z,4432.00
2018-02-24T07:56:17.689Z,4392.00
2018-02-24T07:57:17.665Z,4328.00
2018-02-24T07:58:17.644Z,4520.00
2018-02-24T07:59:17.915Z,4888.00
2018-02-24T08:00:17.594Z,5148.00
2018-02-24T08:01:17.615Z,4924.00
2018-02-24T08:02:17.543Z,4784.00
2018-02-24T08:03:17.518Z,4520.00
2018-02-24T08:04:17.535Z,4092.00
2018-02-24T08:05:17.719Z,3952.00
2018-02-24T08:06:17.440Z,4320.00
2018-02-24T08:07:17.423Z,4180.00
2018-02-24T08:08:17.399Z,4160.00
2018-02-24T08:09:17.368Z,4464.00
2018-02-24T08:10:17.343Z,4528.00
2018-02-24T08:11:17.322Z,4384.00
2018-02-24T08:12:17.596Z,4568.00
2018-02-24T08:13:17.323Z,4408.00
2018-02-24T08:14:17.242Z,4688.00
2018-02-24T08:15:17.254Z,4620.00
2018-02-24T08:16:17.198Z,5128.00
2018-02-24T08:17:17.194Z,5600.00
2018-02-24T08:18:17.403Z,5376.00
2018-02-24T08:19:17.174Z,5160.00
2018-02-24T08:20:17.100Z,5424.00
2018-02-24T08:21:17.076Z,6336.00
2018-02-24T08:22:17.057Z,6476.00
2018-02-24T08:23:17.034Z,4640.00
2018-02-24T08:24:17.005Z,4552.00
2018-02-24T08:25:17.437Z,5392.00
2018-02-24T08:26:16.955Z,4232.00
2018-02-24T08:27:16.930Z,3820.00
2018-02-24T08:28:16.914Z,4636.00
2018-02-24T08:29:16.889Z,3676.00
2018-02-24T08:30:16.859Z,3536.00
2018-02-24T08:31:16.987Z,3520.00
2018-02-24T08:32:17.066Z,3296.00
2018-02-24T08:33:16.787Z,2956.00
2018-02-24T08:34:16.771Z,2700.00
2018-02-24T08:35:16.739Z,2244.00
2018-02-24T08:36:16.721Z,1800.00
2018-02-24T08:37:16.695Z,2144.00
2018-02-24T08:38:16.686Z,1876.00
2018-02-24T08:39:16.942Z,2012.00
2018-02-24T08:40:16.718Z,1848.00
2018-02-24T08:41:16.625Z,2324.00
2018-02-24T08:42:16.576Z,2028.00
2018-02-24T08:43:16.608Z,2052.00
2018-02-24T08:44:16.530Z,2236.00
2018-02-24T08:45:16.554Z,2488.00
2018-02-24T08:46:16.777Z,2480.00
2018-02-24T08:47:16.458Z,2872.00
2018-02-24T08:48:16.431Z,3352.00
2018-02-24T08:49:16.580Z,4880.00
2018-02-24T08:50:16.515Z,4504.00
2018-02-24T08:51:16.829Z,5568.00
2018-02-24T08:52:16.767Z,6188.00
2018-02-24T08:53:16.429Z,5456.00
2018-02-24T08:54:16.331Z,5172.00
2018-02-24T08:55:16.306Z,5620.00
2018-02-24T08:56:16.235Z,6080.00
2018-02-24T08:57:16.421Z,6832.00
2018-02-24T08:58:16.481Z,7124.00
2018-02-24T08:59:16.313Z,6612.00
2018-02-24T09:00:16.142Z,6396.00
2018-02-24T09:01:16.168Z,6608.00
2018-02-24T09:02:16.249Z,5712.00
2018-02-24T09:03:16.312Z,6440.00
2018-02-24T09:04:16.341Z,6128.00
2018-02-24T09:05:16.073Z,5952.00
2018-02-24T09:06:16.034Z,6956.00
2018-02-24T09:07:16.066Z,6144.00
2018-02-24T09:08:16.024Z,5796.00
2018-02-24T09:09:16.050Z,5588.00
2018-02-24T09:10:16.197Z,5916.00
2018-02-24T09:11:15.927Z,6628.00
2018-02-24T09:12:16.051Z,7204.00
2018-02-24T09:13:15.978Z,7960.00
2018-02-24T09:14:15.855Z,7752.00
2018-02-24T09:15:15.805Z,7920.00
2018-02-24T09:16:16.073Z,7992.00
2018-02-24T09:17:15.823Z,8340.00
2018-02-24T09:18:15.716Z,7932.00
2018-02-24T09:19:15.868Z,8132.00
2018-02-24T09:20:15.667Z,8456.00
2018-02-24T09:21:15.686Z,8912.00
2018-02-24T09:22:16.083Z,10488.00
2018-02-24T09:23:15.590Z,11416.00
2018-02-24T09:24:15.686Z,11376.00
2018-02-24T09:25:15.750Z,10728.00
2018-02-24T09:26:15.521Z,12496.00
2018-02-24T09:27:15.494Z,11136.00
2018-02-24T09:28:15.773Z,12084.00
2018-02-24T09:29:15.448Z,12460.00
2018-02-24T09:30:15.433Z,13196.00
2018-02-24T09:31:15.454Z,13328.00
2018-02-24T09:32:15.398Z,13244.00
2018-02-24T09:33:15.362Z,12744.00
2018-02-24T09:34:15.340Z,11956.00
2018-02-24T09:35:15.571Z,9620.00
2018-02-24T09:36:15.295Z,12664.00
2018-02-24T09:37:15.286Z,12948.00
2018-02-24T09:38:15.354Z,9808.00
2018-02-24T09:39:15.235Z,13704.00
2018-02-24T09:40:15.211Z,12168.00
2018-02-24T09:41:15.446Z,14500.00
2018-02-24T09:42:15.171Z,15180.00
2018-02-24T09:43:15.149Z,12592.00
2018-02-24T09:44:15.129Z,16896.00
2018-02-24T09:45:15.110Z,17312.00
2018-02-24T09:46:15.098Z,17888.00
2018-02-24T09:47:15.071Z,18336.00
2018-02-24T09:48:15.365Z,17984.00
2018-02-24T09:49:15.179Z,17920.00
2018-02-24T09:50:15.011Z,12840.00
2018-02-24T09:51:14.988Z,11288.00
2018-02-24T09:52:14.970Z,15152.00
2018-02-24T09:53:14.993Z,16768.00
2018-02-24T09:54:14.936Z,16128.00
2018-02-24T09:55:15.262Z,12248.00
2018-02-24T09:56:14.908Z,12184.00
2018-02-24T09:57:14.882Z,14832.00
2018-02-24T09:58:14.855Z,14600.00
2018-02-24T09:59:14.835Z,14216.00
2018-02-24T10:00:14.819Z,10432.00
2018-02-24T10:01:14.849Z,12232.00
2018-02-24T10:02:15.090Z,10456.00
2018-02-24T10:03:14.761Z,8892.00
2018-02-24T10:04:14.744Z,8348.00
2018-02-24T10:05:14.727Z,7860.00
2018-02-24T10:06:14.712Z,7804.00
2018-02-24T10:07:14.780Z,9700.00
2018-02-24T10:08:14.669Z,10568.00
2018-02-24T10:09:15.646Z,10752.00
2018-02-24T10:10:14.702Z,11408.00
2018-02-24T10:11:14.628Z,12060.00
2018-02-24T10:12:15.232Z,12204.00
2018-02-24T10:13:14.645Z,13696.00
2018-02-24T10:14:14.584Z,14372.00
2018-02-24T10:15:14.558Z,16544.00
2018-02-24T10:16:14.841Z,20160.00
2018-02-24T10:17:14.674Z,20896.00
2018-02-24T10:18:14.506Z,20512.00
2018-02-24T10:19:14.580Z,19744.00
2018-02-24T10:20:14.567Z,19168.00
2018-02-24T10:21:14.446Z,20864.00
2018-02-24T10:22:14.726Z,19584.00
2018-02-24T10:23:14.410Z,20224.00
2018-02-24T10:24:14.396Z,19776.00
2018-02-24T10:25:14.479Z,17792.00
2018-02-24T10:26:14.771Z,17440.00
2018-02-24T10:27:14.342Z,15648.00
2018-02-24T10:28:14.626Z,14456.00
2018-02-24T10:29:14.350Z,12864.00
2018-02-24T10:30:14.300Z,11492.00
2018-02-24T10:31:14.326Z,15712.00
2018-02-24T10:32:14.265Z,17792.00
2018-02-24T10:33:14.255Z,19680.00
2018-02-24T10:34:14.532Z,20032.00
2018-02-24T10:35:14.212Z,19456.00
2018-02-24T10:36:14.195Z,20000.00
2018-02-24T10:37:14.229Z,20032.00
2018-02-24T10:38:14.157Z,18592.00
2018-02-24T10:39:14.129Z,13068.00
2018-02-24T10:40:14.432Z,8672.00
2018-02-24T10:41:14.087Z,8500.00
2018-02-24T10:42:14.070Z,16416.00
2018-02-24T10:43:14.107Z,12856.00
2018-02-24T10:44:14.043Z,28896.00
2018-02-24T10:45:14.019Z,28256.00
2018-02-24T10:46:14.466Z,25504.00
2018-02-24T10:47:13.995Z,24288.00
2018-02-24T10:48:13.972Z,11708.00
2018-02-24T10:49:14.527Z,19808.00
2018-02-24T10:50:13.947Z,6676.00
2018-02-24T10:51:13.935Z,7108.00
2018-02-24T10:52:14.212Z,6928.00
2018-02-24T10:53:13.901Z,7624.00
2018-02-24T10:54:13.878Z,8232.00
2018-02-24T10:55:13.911Z,8960.00
2018-02-24T10:56:13.855Z,9716.00
2018-02-24T10:57:14.002Z,11504.00
2018-02-24T10:58:14.163Z,11192.00
2018-02-24T10:59:13.802Z,10244.00
2018-02-24T11:00:13.778Z,9208.00
2018-02-24T11:01:13.868Z,8224.00
2018-02-24T11:02:13.751Z,7860.00
2018-02-24T11:03:13.750Z,6768.00
2018-02-24T11:04:13.959Z,6596.00
2018-02-24T11:05:13.694Z,6604.00
2018-02-24T11:06:13.679Z,6088.00
2018-02-24T11:07:14.110Z,5692.00
2018-02-24T11:08:13.635Z,5664.00
2018-02-24T11:09:13.626Z,5136.00
2018-02-24T11:10:13.904Z,5784.00
2018-02-24T11:11:13.582Z,5148.00
2018-02-24T11:12:13.558Z,5188.00
2018-02-24T11:13:13.580Z,17760.00
2018-02-24T11:14:13.564Z,13076.00
2018-02-24T11:15:13.504Z,7540.00
2018-02-24T11:16:13.779Z,5712.00
2018-02-24T11:17:13.447Z,6080.00
2018-02-24T11:18:13.455Z,7156.00
2018-02-24T11:19:13.467Z,6144.00
2018-02-24T11:20:13.391Z,19936.00
2018-02-24T11:21:13.382Z,11920.00
2018-02-24T11:22:13.647Z,7260.00
2018-02-24T11:23:13.333Z,41600.00
2018-02-24T11:24:13.307Z,40288.00
2018-02-24T11:25:13.340Z,10956.00
2018-02-24T11:26:13.331Z,41120.00
2018-02-24T11:27:13.299Z,41216.00
2018-02-24T11:28:13.527Z,41472.00
2018-02-24T11:29:13.202Z,42976.00
2018-02-24T11:30:13.206Z,43136.00
2018-02-24T11:31:13.307Z,41184.00
2018-02-24T11:32:13.136Z,39200.00
2018-02-24T11:33:13.118Z,40512.00
2018-02-24T11:34:13.104Z,41952.00
2018-02-24T11:35:13.664Z,43232.00
2018-02-24T11:36:13.082Z,48320.00
2018-02-24T11:37:13.113Z,50240.00
2018-02-24T11:38:13.046Z,48160.00
2018-02-24T11:39:13.026Z,45568.00
2018-02-24T11:40:13.251Z,44960.00
2018-02-24T11:41:12.976Z,45152.00
2018-02-24T11:42:12.964Z,43200.00
2018-02-24T11:43:12.994Z,42624.00
2018-02-24T11:44:13.030Z,43072.00
2018-02-24T11:45:12.912Z,43520.00
2018-02-24T11:46:12.894Z,44800.00
2018-02-24T11:47:13.187Z,44576.00
2018-02-24T11:48:12.867Z,44512.00
2018-02-24T11:49:13.239Z,44224.00
2018-02-24T11:50:12.884Z,43552.00
2018-02-24T11:51:12.890Z,45472.00
2018-02-24T11:52:12.879Z,46528.00
2018-02-24T11:53:13.152Z,49280.00
2018-02-24T11:54:12.787Z,49824.00
2018-02-24T11:55:13.115Z,21536.00
2018-02-24T11:56:12.755Z,15484.00
2018-02-24T11:57:12.738Z,16992.00
2018-02-24T11:58:12.722Z,18304.00
2018-02-24T11:59:12.963Z,51872.00
2018-02-24T12:00:12.699Z,52672.00
2018-02-24T12:01:12.746Z,48864.00
2018-02-24T12:02:12.672Z,42208.00
2018-02-24T12:03:12.687Z,41952.00
2018-02-24T12:04:12.644Z,38720.00
2018-02-24T12:05:12.886Z,33824.00
2018-02-24T12:06:12.620Z,33984.00
2018-02-24T12:07:12.651Z,31392.00
2018-02-24T12:08:12.588Z,14148.00
2018-02-24T12:09:12.580Z,11436.00
2018-02-24T12:10:12.564Z,45696.00
2018-02-24T12:11:12.798Z,46272.00
2018-02-24T12:12:12.539Z,39520.00
2018-02-24T12:13:12.970Z,44640.00
2018-02-24T12:14:12.821Z,48320.00
2018-02-24T12:15:12.526Z,39488.00
2018-02-24T12:16:12.483Z,20576.00
2018-02-24T12:17:12.466Z,22464.00
2018-02-24T12:18:12.454Z,45856.00
2018-02-24T12:19:12.655Z,44384.00
2018-02-24T12:20:12.427Z,43136.00
2018-02-24T12:21:12.423Z,13748.00
2018-02-24T12:22:12.402Z,13520.00
2018-02-24T12:23:12.387Z,13692.00
2018-02-24T12:24:12.375Z,14516.00
2018-02-24T12:25:12.600Z,19488.00
2018-02-24T12:26:12.360Z,11380.00
2018-02-24T12:27:12.396Z,11020.00
2018-02-24T12:28:13.287Z,11472.00
2018-02-24T12:29:12.384Z,13056.00
2018-02-24T12:30:13.222Z,12844.00
2018-02-24T12:31:12.331Z,11616.00
2018-02-24T12:32:12.271Z,10752.00
2018-02-24T12:33:12.250Z,10044.00
2018-02-24T12:34:12.236Z,9264.00
2018-02-24T12:35:12.226Z,8724.00
2018-02-24T12:36:12.203Z,8112.00
2018-02-24T12:37:12.246Z,7748.00
2018-02-24T12:38:12.180Z,7652.00
2018-02-24T12:39:12.202Z,6820.00
2018-02-24T12:40:12.139Z,6664.00
2018-02-24T12:41:12.124Z,6636.00
2018-02-24T12:42:12.114Z,7264.00
2018-02-24T12:43:12.238Z,6628.00
2018-02-24T12:44:12.174Z,6968.00
2018-02-24T12:45:12.058Z,8332.00
2018-02-24T12:46:12.039Z,11180.00
2018-02-24T12:47:12.014Z,9432.00